sensor_id;sensor_type;location;lat;lon;timestamp;P1;durP1;ratioP1;P2;durP2;ratioP2
37877;SDS011;23715;53.652;8.516;2023-02-28T00:01:40;38.63;;;35.88;;
37877;SDS011;23715;53.652;8.516;2023-02-28T00:06:40;38.15;;;35.70;;
37877;SDS011;23715;53.652;8.516;2023-02-28T00:11:41;38.48;;;36.17;;
37877;SDS011;23715;53.652;8.516;2023-02-28T00:16:42;40.98;;;38.20;;
37877;SDS011;23715;53.652;8.516;2023-02-28T00:21:43;44.03;;;41.33;;
37877;SDS011;23715;53.652;8.516;2023-02-28T00:26:43;43.17;;;40.58;;
37877;SDS011;23715;53.652;8.516;2023-02-28T00:31:43;43.02;;;40.30;;
37877;SDS011;23715;53.652;8.516;2023-02-28T00:36:43;38.92;;;36.55;;
37877;SDS011;23715;53.652;8.516;2023-02-28T00:41:45;40.40;;;37.90;;
37877;SDS011;23715;53.652;8.516;2023-02-28T00:46:46;39.48;;;36.93;;
37877;SDS011;23715;53.652;8.516;2023-02-28T00:51:46;42.75;;;40.10;;
37877;SDS011;23715;53.652;8.516;2023-02-28T00:56:47;41.58;;;39.15;;
37877;SDS011;23715;53.652;8.516;2023-02-28T01:01:48;40.67;;;37.70;;
37877;SDS011;23715;53.652;8.516;2023-02-28T01:06:49;38.00;;;35.58;;
37877;SDS011;23715;53.652;8.516;2023-02-28T01:11:49;40.55;;;38.00;;
37877;SDS011;23715;53.652;8.516;2023-02-28T01:16:50;41.83;;;39.33;;
37877;SDS011;23715;53.652;8.516;2023-02-28T01:21:50;39.23;;;36.88;;
37877;SDS011;23715;53.652;8.516;2023-02-28T01:26:50;43.33;;;40.67;;
37877;SDS011;23715;53.652;8.516;2023-02-28T01:31:52;45.10;;;42.30;;
37877;SDS011;23715;53.652;8.516;2023-02-28T01:36:52;44.20;;;41.60;;
37877;SDS011;23715;53.652;8.516;2023-02-28T01:41:53;44.45;;;41.70;;
37877;SDS011;23715;53.652;8.516;2023-02-28T01:46:53;45.83;;;43.02;;
37877;SDS011;23715;53.652;8.516;2023-02-28T01:51:54;46.58;;;43.98;;
37877;SDS011;23715;53.652;8.516;2023-02-28T02:02:03;45.98;;;43.28;;
37877;SDS011;23715;53.652;8.516;2023-02-28T02:07:04;48.30;;;45.40;;
37877;SDS011;23715;53.652;8.516;2023-02-28T02:17:10;44.80;;;42.15;;
37877;SDS011;23715;53.652;8.516;2023-02-28T02:33:39;43.85;;;41.55;;
37877;SDS011;23715;53.652;8.516;2023-02-28T02:38:43;45.43;;;42.23;;
37877;SDS011;23715;53.652;8.516;2023-02-28T02:43:53;45.00;;;42.25;;
37877;SDS011;23715;53.652;8.516;2023-02-28T02:48:56;49.53;;;46.73;;
37877;SDS011;23715;53.652;8.516;2023-02-28T02:54:02;42.48;;;39.98;;
37877;SDS011;23715;53.652;8.516;2023-02-28T02:59:05;46.58;;;43.90;;
37877;SDS011;23715;53.652;8.516;2023-02-28T03:04:08;45.63;;;42.90;;
37877;SDS011;23715;53.652;8.516;2023-02-28T03:09:11;44.75;;;42.05;;
37877;SDS011;23715;53.652;8.516;2023-02-28T03:30:03;47.13;;;44.23;;
37877;SDS011;23715;53.652;8.516;2023-02-28T03:35:10;48.02;;;45.05;;
37877;SDS011;23715;53.652;8.516;2023-02-28T03:40:20;47.03;;;43.98;;
37877;SDS011;23715;53.652;8.516;2023-02-28T03:45:26;49.30;;;46.15;;
37877;SDS011;23715;53.652;8.516;2023-02-28T03:55:40;47.45;;;44.58;;
37877;SDS011;23715;53.652;8.516;2023-02-28T04:00:40;47.62;;;44.15;;
37877;SDS011;23715;53.652;8.516;2023-02-28T04:05:53;46.40;;;43.35;;
37877;SDS011;23715;53.652;8.516;2023-02-28T04:11:00;45.92;;;43.02;;
37877;SDS011;23715;53.652;8.516;2023-02-28T04:15:56;48.05;;;44.85;;
37877;SDS011;23715;53.652;8.516;2023-02-28T04:20:59;50.33;;;46.83;;
37877;SDS011;23715;53.652;8.516;2023-02-28T04:25:59;47.58;;;44.50;;
37877;SDS011;23715;53.652;8.516;2023-02-28T04:36:01;47.93;;;44.65;;
37877;SDS011;23715;53.652;8.516;2023-02-28T04:41:03;47.00;;;43.90;;
37877;SDS011;23715;53.652;8.516;2023-02-28T04:46:06;44.60;;;41.68;;
37877;SDS011;23715;53.652;8.516;2023-02-28T04:51:08;47.95;;;44.95;;
37877;SDS011;23715;53.652;8.516;2023-02-28T04:56:11;49.70;;;46.40;;
37877;SDS011;23715;53.652;8.516;2023-02-28T05:01:23;49.45;;;46.35;;
37877;SDS011;23715;53.652;8.516;2023-02-28T05:06:29;50.52;;;47.00;;
37877;SDS011;23715;53.652;8.516;2023-02-28T05:11:31;50.38;;;47.15;;
37877;SDS011;23715;53.652;8.516;2023-02-28T05:16:35;49.93;;;46.73;;
37877;SDS011;23715;53.652;8.516;2023-02-28T05:21:39;49.40;;;46.37;;
37877;SDS011;23715;53.652;8.516;2023-02-28T05:26:41;49.40;;;46.30;;
37877;SDS011;23715;53.652;8.516;2023-02-28T05:31:42;48.52;;;45.52;;
37877;SDS011;23715;53.652;8.516;2023-02-28T05:41:42;52.43;;;48.98;;
37877;SDS011;23715;53.652;8.516;2023-02-28T05:46:43;52.33;;;48.98;;
37877;SDS011;23715;53.652;8.516;2023-02-28T05:51:43;50.98;;;47.67;;
37877;SDS011;23715;53.652;8.516;2023-02-28T05:56:43;56.98;;;53.42;;
37877;SDS011;23715;53.652;8.516;2023-02-28T06:01:45;56.30;;;52.67;;
37877;SDS011;23715;53.652;8.516;2023-02-28T06:06:50;54.77;;;51.15;;
37877;SDS011;23715;53.652;8.516;2023-02-28T06:11:50;54.18;;;50.38;;
37877;SDS011;23715;53.652;8.516;2023-02-28T06:16:51;55.63;;;51.90;;
37877;SDS011;23715;53.652;8.516;2023-02-28T06:21:52;54.10;;;50.63;;
37877;SDS011;23715;53.652;8.516;2023-02-28T06:26:53;55.17;;;51.77;;
37877;SDS011;23715;53.652;8.516;2023-02-28T06:31:54;52.47;;;49.30;;
37877;SDS011;23715;53.652;8.516;2023-02-28T06:41:53;53.15;;;49.65;;
37877;SDS011;23715;53.652;8.516;2023-02-28T06:46:54;52.30;;;48.73;;
37877;SDS011;23715;53.652;8.516;2023-02-28T06:51:55;51.73;;;48.55;;
37877;SDS011;23715;53.652;8.516;2023-02-28T06:56:57;54.73;;;51.27;;
37877;SDS011;23715;53.652;8.516;2023-02-28T07:01:57;51.95;;;48.70;;
37877;SDS011;23715;53.652;8.516;2023-02-28T07:07:00;65.15;;;60.75;;
37877;SDS011;23715;53.652;8.516;2023-02-28T07:12:01;62.40;;;58.75;;
37877;SDS011;23715;53.652;8.516;2023-02-28T07:17:01;61.88;;;57.95;;
37877;SDS011;23715;53.652;8.516;2023-02-28T07:27:01;56.73;;;52.67;;
37877;SDS011;23715;53.652;8.516;2023-02-28T07:32:04;55.00;;;51.55;;
37877;SDS011;23715;53.652;8.516;2023-02-28T07:37:12;54.00;;;50.33;;
37877;SDS011;23715;53.652;8.516;2023-02-28T07:42:08;57.87;;;53.70;;
37877;SDS011;23715;53.652;8.516;2023-02-28T07:47:10;54.83;;;50.92;;
37877;SDS011;23715;53.652;8.516;2023-02-28T07:52:10;59.70;;;55.70;;
37877;SDS011;23715;53.652;8.516;2023-02-28T07:57:11;54.18;;;50.48;;
37877;SDS011;23715;53.652;8.516;2023-02-28T08:02:12;54.40;;;50.80;;
37877;SDS011;23715;53.652;8.516;2023-02-28T08:07:19;53.05;;;49.15;;
37877;SDS011;23715;53.652;8.516;2023-02-28T08:12:16;53.37;;;49.77;;
37877;SDS011;23715;53.652;8.516;2023-02-28T08:17:16;56.40;;;52.23;;
37877;SDS011;23715;53.652;8.516;2023-02-28T08:22:16;55.95;;;51.37;;
37877;SDS011;23715;53.652;8.516;2023-02-28T08:27:17;57.30;;;53.28;;
37877;SDS011;23715;53.652;8.516;2023-02-28T08:32:17;55.70;;;51.48;;
37877;SDS011;23715;53.652;8.516;2023-02-28T08:42:18;55.00;;;50.27;;
37877;SDS011;23715;53.652;8.516;2023-02-28T08:47:19;52.83;;;48.58;;
37877;SDS011;23715;53.652;8.516;2023-02-28T08:52:21;51.05;;;46.28;;
37877;SDS011;23715;53.652;8.516;2023-02-28T08:57:21;50.63;;;46.68;;
37877;SDS011;23715;53.652;8.516;2023-02-28T09:02:23;48.05;;;43.45;;
37877;SDS011;23715;53.652;8.516;2023-02-28T09:07:25;45.85;;;42.15;;
37877;SDS011;23715;53.652;8.516;2023-02-28T09:12:26;44.48;;;40.83;;
37877;SDS011;23715;53.652;8.516;2023-02-28T09:17:28;42.55;;;39.13;;
37877;SDS011;23715;53.652;8.516;2023-02-28T09:22:28;42.78;;;39.08;;
37877;SDS011;23715;53.652;8.516;2023-02-28T09:32:30;41.07;;;37.37;;
37877;SDS011;23715;53.652;8.516;2023-02-28T09:37:30;38.88;;;35.73;;
37877;SDS011;23715;53.652;8.516;2023-02-28T09:42:33;39.80;;;36.13;;
37877;SDS011;23715;53.652;8.516;2023-02-28T09:47:36;38.92;;;35.48;;
37877;SDS011;23715;53.652;8.516;2023-02-28T09:52:38;46.05;;;41.18;;
37877;SDS011;23715;53.652;8.516;2023-02-28T09:57:38;44.83;;;41.40;;
37877;SDS011;23715;53.652;8.516;2023-02-28T10:02:54;42.58;;;38.55;;
37877;SDS011;23715;53.652;8.516;2023-02-28T10:08:19;39.43;;;36.23;;
37877;SDS011;23715;53.652;8.516;2023-02-28T10:13:34;39.27;;;35.48;;
37877;SDS011;23715;53.652;8.516;2023-02-28T10:18:47;35.35;;;32.15;;
37877;SDS011;23715;53.652;8.516;2023-02-28T10:29:21;30.95;;;28.10;;
37877;SDS011;23715;53.652;8.516;2023-02-28T10:34:21;32.42;;;29.18;;
37877;SDS011;23715;53.652;8.516;2023-02-28T10:39:34;26.37;;;23.92;;
37877;SDS011;23715;53.652;8.516;2023-02-28T10:44:45;27.42;;;24.82;;
37877;SDS011;23715;53.652;8.516;2023-02-28T10:49:49;25.90;;;23.45;;
37877;SDS011;23715;53.652;8.516;2023-02-28T10:54:53;28.47;;;25.88;;
37877;SDS011;23715;53.652;8.516;2023-02-28T11:00:19;26.90;;;24.35;;
37877;SDS011;23715;53.652;8.516;2023-02-28T11:10:44;26.00;;;23.47;;
37877;SDS011;23715;53.652;8.516;2023-02-28T11:15:55;26.40;;;23.85;;
37877;SDS011;23715;53.652;8.516;2023-02-28T11:20:59;24.52;;;22.02;;
37877;SDS011;23715;53.652;8.516;2023-02-28T11:26:02;22.73;;;20.72;;
37877;SDS011;23715;53.652;8.516;2023-02-28T12:13:38;14.33;;;12.98;;
37877;SDS011;23715;53.652;8.516;2023-02-28T13:51:45;19.50;;;17.67;;
37877;SDS011;23715;53.652;8.516;2023-02-28T13:56:50;20.20;;;18.42;;
37877;SDS011;23715;53.652;8.516;2023-02-28T14:06:54;21.07;;;18.87;;
37877;SDS011;23715;53.652;8.516;2023-02-28T14:11:56;19.73;;;17.80;;
37877;SDS011;23715;53.652;8.516;2023-02-28T14:16:58;20.60;;;18.60;;
37877;SDS011;23715;53.652;8.516;2023-02-28T14:27:19;21.68;;;19.65;;
37877;SDS011;23715;53.652;8.516;2023-02-28T14:37:44;22.87;;;20.60;;
37877;SDS011;23715;53.652;8.516;2023-02-28T14:42:47;21.12;;;19.27;;
37877;SDS011;23715;53.652;8.516;2023-02-28T14:47:50;20.40;;;16.67;;
37877;SDS011;23715;53.652;8.516;2023-02-28T14:52:54;18.70;;;16.70;;
37877;SDS011;23715;53.652;8.516;2023-02-28T14:58:04;19.57;;;17.73;;
37877;SDS011;23715;53.652;8.516;2023-02-28T15:03:17;20.97;;;18.73;;
37877;SDS011;23715;53.652;8.516;2023-02-28T15:08:13;20.32;;;18.30;;
37877;SDS011;23715;53.652;8.516;2023-02-28T15:13:23;20.20;;;18.12;;
37877;SDS011;23715;53.652;8.516;2023-02-28T15:23:39;18.30;;;16.60;;
37877;SDS011;23715;53.652;8.516;2023-02-28T15:28:43;16.27;;;14.63;;
37877;SDS011;23715;53.652;8.516;2023-02-28T15:34:06;16.35;;;14.68;;
37877;SDS011;23715;53.652;8.516;2023-02-28T15:38:59;18.62;;;16.87;;
37877;SDS011;23715;53.652;8.516;2023-02-28T15:44:23;19.20;;;17.40;;
37877;SDS011;23715;53.652;8.516;2023-02-28T15:49:29;16.93;;;15.25;;
37877;SDS011;23715;53.652;8.516;2023-02-28T15:54:33;17.98;;;16.10;;
37877;SDS011;23715;53.652;8.516;2023-02-28T15:59:34;20.10;;;18.10;;
37877;SDS011;23715;53.652;8.516;2023-02-28T16:04:53;23.38;;;19.42;;
37877;SDS011;23715;53.652;8.516;2023-02-28T16:09:41;21.87;;;18.40;;
37877;SDS011;23715;53.652;8.516;2023-02-28T16:14:45;22.60;;;17.90;;
37877;SDS011;23715;53.652;8.516;2023-02-28T16:19:47;21.80;;;19.32;;
37877;SDS011;23715;53.652;8.516;2023-02-28T16:24:55;26.50;;;18.85;;
37877;SDS011;23715;53.652;8.516;2023-02-28T16:29:51;21.75;;;17.92;;
37877;SDS011;23715;53.652;8.516;2023-02-28T16:35:00;22.22;;;18.45;;
37877;SDS011;23715;53.652;8.516;2023-02-28T16:40:01;24.27;;;16.55;;
37877;SDS011;23715;53.652;8.516;2023-02-28T16:45:03;21.02;;;16.37;;
37877;SDS011;23715;53.652;8.516;2023-02-28T16:50:12;24.55;;;15.45;;
37877;SDS011;23715;53.652;8.516;2023-02-28T16:55:18;26.82;;;17.75;;
37877;SDS011;23715;53.652;8.516;2023-02-28T17:00:31;19.23;;;15.18;;
37877;SDS011;23715;53.652;8.516;2023-02-28T17:05:36;19.98;;;14.87;;
37877;SDS011;23715;53.652;8.516;2023-02-28T17:10:37;22.07;;;15.03;;
37877;SDS011;23715;53.652;8.516;2023-02-28T17:15:48;18.32;;;14.58;;
37877;SDS011;23715;53.652;8.516;2023-02-28T17:20:45;19.00;;;14.38;;
37877;SDS011;23715;53.652;8.516;2023-02-28T17:25:48;18.67;;;13.68;;
37877;SDS011;23715;53.652;8.516;2023-02-28T17:30:56;18.15;;;12.25;;
37877;SDS011;23715;53.652;8.516;2023-02-28T17:36:05;16.80;;;14.18;;
37877;SDS011;23715;53.652;8.516;2023-02-28T17:41:07;17.13;;;13.83;;
37877;SDS011;23715;53.652;8.516;2023-02-28T17:46:14;16.67;;;14.00;;
37877;SDS011;23715;53.652;8.516;2023-02-28T17:51:18;18.23;;;14.30;;
37877;SDS011;23715;53.652;8.516;2023-02-28T17:56:21;23.77;;;17.10;;
37877;SDS011;23715;53.652;8.516;2023-02-28T18:01:25;21.42;;;16.60;;
37877;SDS011;23715;53.652;8.516;2023-02-28T18:06:27;28.32;;;18.42;;
37877;SDS011;23715;53.652;8.516;2023-02-28T18:11:29;23.10;;;17.73;;
37877;SDS011;23715;53.652;8.516;2023-02-28T18:16:30;23.05;;;18.65;;
37877;SDS011;23715;53.652;8.516;2023-02-28T18:21:31;30.82;;;20.30;;
37877;SDS011;23715;53.652;8.516;2023-02-28T18:31:55;28.32;;;21.75;;
37877;SDS011;23715;53.652;8.516;2023-02-28T18:37:14;27.17;;;20.10;;
37877;SDS011;23715;53.652;8.516;2023-02-28T18:53:15;28.90;;;19.90;;
37877;SDS011;23715;53.652;8.516;2023-02-28T18:58:14;26.75;;;21.05;;
37877;SDS011;23715;53.652;8.516;2023-02-28T19:03:22;27.50;;;19.65;;
37877;SDS011;23715;53.652;8.516;2023-02-28T19:08:40;26.82;;;19.40;;
37877;SDS011;23715;53.652;8.516;2023-02-28T19:13:57;27.22;;;19.82;;
37877;SDS011;23715;53.652;8.516;2023-02-28T19:19:08;24.57;;;18.52;;
37877;SDS011;23715;53.652;8.516;2023-02-28T19:24:28;30.52;;;19.32;;
37877;SDS011;23715;53.652;8.516;2023-02-28T19:29:25;31.80;;;21.93;;
37877;SDS011;23715;53.652;8.516;2023-02-28T19:34:25;29.48;;;20.32;;
37877;SDS011;23715;53.652;8.516;2023-02-28T19:39:25;27.80;;;20.20;;
37877;SDS011;23715;53.652;8.516;2023-02-28T19:44:26;31.97;;;22.42;;
37877;SDS011;23715;53.652;8.516;2023-02-28T19:49:27;27.32;;;20.20;;
37877;SDS011;23715;53.652;8.516;2023-02-28T19:54:29;36.58;;;23.15;;
37877;SDS011;23715;53.652;8.516;2023-02-28T19:59:31;31.75;;;21.97;;
37877;SDS011;23715;53.652;8.516;2023-02-28T20:04:31;33.20;;;21.68;;
37877;SDS011;23715;53.652;8.516;2023-02-28T20:14:31;34.40;;;23.07;;
37877;SDS011;23715;53.652;8.516;2023-02-28T20:19:33;37.33;;;24.50;;
37877;SDS011;23715;53.652;8.516;2023-02-28T20:24:39;37.23;;;23.85;;
37877;SDS011;23715;53.652;8.516;2023-02-28T20:29:45;34.43;;;23.18;;
37877;SDS011;23715;53.652;8.516;2023-02-28T20:34:42;35.35;;;24.95;;
37877;SDS011;23715;53.652;8.516;2023-02-28T20:39:44;40.52;;;25.12;;
37877;SDS011;23715;53.652;8.516;2023-02-28T20:44:45;38.23;;;25.60;;
37877;SDS011;23715;53.652;8.516;2023-02-28T20:49:46;37.75;;;25.32;;
37877;SDS011;23715;53.652;8.516;2023-02-28T20:54:46;34.33;;;24.27;;
37877;SDS011;23715;53.652;8.516;2023-02-28T20:59:48;39.08;;;25.48;;
37877;SDS011;23715;53.652;8.516;2023-02-28T21:04:48;34.43;;;24.80;;
37877;SDS011;23715;53.652;8.516;2023-02-28T21:09:48;38.67;;;25.30;;
37877;SDS011;23715;53.652;8.516;2023-02-28T21:14:50;39.18;;;25.97;;
37877;SDS011;23715;53.652;8.516;2023-02-28T21:19:51;34.45;;;23.20;;
37877;SDS011;23715;53.652;8.516;2023-02-28T21:24:53;34.35;;;23.15;;
37877;SDS011;23715;53.652;8.516;2023-02-28T21:29:53;32.45;;;23.47;;
37877;SDS011;23715;53.652;8.516;2023-02-28T21:34:53;35.75;;;23.38;;
37877;SDS011;23715;53.652;8.516;2023-02-28T21:39:54;33.28;;;23.30;;
37877;SDS011;23715;53.652;8.516;2023-02-28T21:44:57;41.98;;;26.10;;
37877;SDS011;23715;53.652;8.516;2023-02-28T21:49:58;41.08;;;26.65;;
37877;SDS011;23715;53.652;8.516;2023-02-28T21:54:59;35.80;;;24.25;;
37877;SDS011;23715;53.652;8.516;2023-02-28T22:00:00;42.45;;;27.20;;
37877;SDS011;23715;53.652;8.516;2023-02-28T22:05:03;36.20;;;25.12;;
37877;SDS011;23715;53.652;8.516;2023-02-28T22:10:04;35.73;;;25.20;;
37877;SDS011;23715;53.652;8.516;2023-02-28T22:15:05;40.65;;;25.62;;
37877;SDS011;23715;53.652;8.516;2023-02-28T22:20:05;35.50;;;23.52;;
37877;SDS011;23715;53.652;8.516;2023-02-28T22:25:07;32.95;;;22.62;;
37877;SDS011;23715;53.652;8.516;2023-02-28T22:30:08;33.90;;;23.60;;
37877;SDS011;23715;53.652;8.516;2023-02-28T22:35:08;34.95;;;23.70;;
37877;SDS011;23715;53.652;8.516;2023-02-28T22:40:09;28.92;;;21.40;;
37877;SDS011;23715;53.652;8.516;2023-02-28T22:45:10;32.58;;;23.87;;
37877;SDS011;23715;53.652;8.516;2023-02-28T22:50:11;30.72;;;21.93;;
37877;SDS011;23715;53.652;8.516;2023-02-28T22:55:11;33.08;;;23.70;;
37877;SDS011;23715;53.652;8.516;2023-02-28T23:00:11;33.95;;;22.05;;
37877;SDS011;23715;53.652;8.516;2023-02-28T23:05:12;31.77;;;21.55;;
37877;SDS011;23715;53.652;8.516;2023-02-28T23:10:14;31.95;;;21.07;;
37877;SDS011;23715;53.652;8.516;2023-02-28T23:15:16;31.97;;;21.83;;
37877;SDS011;23715;53.652;8.516;2023-02-28T23:20:19;38.92;;;23.12;;
37877;SDS011;23715;53.652;8.516;2023-02-28T23:25:19;32.33;;;21.65;;
37877;SDS011;23715;53.652;8.516;2023-02-28T23:30:20;32.88;;;21.75;;
37877;SDS011;23715;53.652;8.516;2023-02-28T23:35:21;34.73;;;21.65;;
37877;SDS011;23715;53.652;8.516;2023-02-28T23:45:21;30.85;;;20.57;;
37877;SDS011;23715;53.652;8.516;2023-02-28T23:50:21;29.00;;;20.60;;
